sensor_id;sensor_type;location;lat;lon;timestamp;P1;durP1;ratioP1;P2;durP2;ratioP2
17345;SDS011;8790;53.590;10.002;2023-12-20T00:02:09;5.80;;;1.40;;
17345;SDS011;8790;53.590;10.002;2023-12-20T00:04:40;6.33;;;1.57;;
17345;SDS011;8790;53.590;10.002;2023-12-20T00:07:12;4.13;;;1.77;;
17345;SDS011;8790;53.590;10.002;2023-12-20T00:09:43;5.10;;;1.60;;
17345;SDS011;8790;53.590;10.002;2023-12-20T00:12:15;5.90;;;1.27;;
17345;SDS011;8790;53.590;10.002;2023-12-20T00:14:46;7.13;;;1.57;;
17345;SDS011;8790;53.590;10.002;2023-12-20T00:17:19;5.70;;;1.60;;
17345;SDS011;8790;53.590;10.002;2023-12-20T00:19:50;4.80;;;1.57;;
17345;SDS011;8790;53.590;10.002;2023-12-20T00:22:22;8.10;;;1.73;;
17345;SDS011;8790;53.590;10.002;2023-12-20T00:24:53;11.53;;;1.77;;
17345;SDS011;8790;53.590;10.002;2023-12-20T00:27:24;8.00;;;1.37;;
17345;SDS011;8790;53.590;10.002;2023-12-20T00:29:56;7.33;;;1.47;;
17345;SDS011;8790;53.590;10.002;2023-12-20T00:32:28;7.70;;;1.50;;
17345;SDS011;8790;53.590;10.002;2023-12-20T00:35:00;6.93;;;1.50;;
17345;SDS011;8790;53.590;10.002;2023-12-20T00:37:32;5.80;;;1.60;;
17345;SDS011;8790;53.590;10.002;2023-12-20T00:40:03;4.87;;;1.40;;
17345;SDS011;8790;53.590;10.002;2023-12-20T00:42:36;8.30;;;1.60;;
17345;SDS011;8790;53.590;10.002;2023-12-20T00:45:08;6.37;;;1.40;;
17345;SDS011;8790;53.590;10.002;2023-12-20T00:47:41;5.83;;;1.50;;
17345;SDS011;8790;53.590;10.002;2023-12-20T00:50:12;6.33;;;1.20;;
17345;SDS011;8790;53.590;10.002;2023-12-20T00:52:44;6.60;;;1.50;;
17345;SDS011;8790;53.590;10.002;2023-12-20T00:55:16;6.77;;;1.40;;
17345;SDS011;8790;53.590;10.002;2023-12-20T00:57:47;8.03;;;1.60;;
17345;SDS011;8790;53.590;10.002;2023-12-20T01:00:19;8.77;;;1.57;;
17345;SDS011;8790;53.590;10.002;2023-12-20T01:02:52;7.67;;;1.50;;
17345;SDS011;8790;53.590;10.002;2023-12-20T01:05:24;6.43;;;1.40;;
17345;SDS011;8790;53.590;10.002;2023-12-20T01:07:55;9.50;;;1.80;;
17345;SDS011;8790;53.590;10.002;2023-12-20T01:10:27;7.67;;;1.50;;
17345;SDS011;8790;53.590;10.002;2023-12-20T01:12:59;5.20;;;1.30;;
17345;SDS011;8790;53.590;10.002;2023-12-20T01:15:30;10.13;;;1.90;;
17345;SDS011;8790;53.590;10.002;2023-12-20T01:18:03;8.23;;;1.57;;
17345;SDS011;8790;53.590;10.002;2023-12-20T01:20:35;5.60;;;1.30;;
17345;SDS011;8790;53.590;10.002;2023-12-20T01:23:07;7.43;;;1.40;;
17345;SDS011;8790;53.590;10.002;2023-12-20T01:25:38;6.47;;;1.50;;
17345;SDS011;8790;53.590;10.002;2023-12-20T01:28:10;8.47;;;1.40;;
17345;SDS011;8790;53.590;10.002;2023-12-20T01:30:42;7.33;;;1.30;;
17345;SDS011;8790;53.590;10.002;2023-12-20T01:33:14;8.87;;;1.50;;
17345;SDS011;8790;53.590;10.002;2023-12-20T01:35:46;7.53;;;1.60;;
17345;SDS011;8790;53.590;10.002;2023-12-20T01:38:17;5.23;;;1.17;;
17345;SDS011;8790;53.590;10.002;2023-12-20T01:40:50;7.23;;;1.37;;
17345;SDS011;8790;53.590;10.002;2023-12-20T01:43:21;7.43;;;1.17;;
17345;SDS011;8790;53.590;10.002;2023-12-20T01:45:52;5.90;;;0.97;;
17345;SDS011;8790;53.590;10.002;2023-12-20T01:48:26;5.27;;;1.30;;
17345;SDS011;8790;53.590;10.002;2023-12-20T01:50:59;8.10;;;1.60;;
17345;SDS011;8790;53.590;10.002;2023-12-20T01:53:31;6.53;;;1.50;;
17345;SDS011;8790;53.590;10.002;2023-12-20T01:56:02;12.13;;;1.60;;
17345;SDS011;8790;53.590;10.002;2023-12-20T01:58:35;8.60;;;1.33;;
17345;SDS011;8790;53.590;10.002;2023-12-20T02:01:10;7.70;;;1.23;;
17345;SDS011;8790;53.590;10.002;2023-12-20T02:03:44;6.27;;;1.40;;
17345;SDS011;8790;53.590;10.002;2023-12-20T02:06:16;6.93;;;1.43;;
17345;SDS011;8790;53.590;10.002;2023-12-20T02:08:48;7.30;;;1.30;;
17345;SDS011;8790;53.590;10.002;2023-12-20T02:11:20;9.90;;;1.40;;
17345;SDS011;8790;53.590;10.002;2023-12-20T02:13:52;8.00;;;1.50;;
17345;SDS011;8790;53.590;10.002;2023-12-20T02:16:24;7.60;;;1.60;;
17345;SDS011;8790;53.590;10.002;2023-12-20T02:18:57;7.10;;;1.80;;
17345;SDS011;8790;53.590;10.002;2023-12-20T02:21:32;9.70;;;1.40;;
17345;SDS011;8790;53.590;10.002;2023-12-20T02:24:04;6.50;;;1.20;;
17345;SDS011;8790;53.590;10.002;2023-12-20T02:26:36;8.17;;;1.70;;
17345;SDS011;8790;53.590;10.002;2023-12-20T02:29:07;9.63;;;1.47;;
17345;SDS011;8790;53.590;10.002;2023-12-20T02:31:39;4.53;;;1.07;;
17345;SDS011;8790;53.590;10.002;2023-12-20T02:34:10;11.57;;;1.67;;
17345;SDS011;8790;53.590;10.002;2023-12-20T02:36:43;8.43;;;1.37;;
17345;SDS011;8790;53.590;10.002;2023-12-20T02:39:15;5.00;;;1.60;;
17345;SDS011;8790;53.590;10.002;2023-12-20T02:41:46;6.90;;;1.30;;
17345;SDS011;8790;53.590;10.002;2023-12-20T02:44:18;3.17;;;1.03;;
17345;SDS011;8790;53.590;10.002;2023-12-20T02:46:49;4.77;;;1.40;;
17345;SDS011;8790;53.590;10.002;2023-12-20T02:49:21;5.77;;;1.17;;
17345;SDS011;8790;53.590;10.002;2023-12-20T02:51:54;6.43;;;1.13;;
17345;SDS011;8790;53.590;10.002;2023-12-20T02:54:25;7.03;;;1.83;;
17345;SDS011;8790;53.590;10.002;2023-12-20T02:56:56;6.20;;;1.37;;
17345;SDS011;8790;53.590;10.002;2023-12-20T02:59:28;8.63;;;1.50;;
17345;SDS011;8790;53.590;10.002;2023-12-20T03:01:59;6.03;;;1.47;;
17345;SDS011;8790;53.590;10.002;2023-12-20T03:04:31;4.70;;;1.40;;
17345;SDS011;8790;53.590;10.002;2023-12-20T03:07:04;4.10;;;1.27;;
17345;SDS011;8790;53.590;10.002;2023-12-20T03:09:35;5.43;;;1.43;;
17345;SDS011;8790;53.590;10.002;2023-12-20T03:12:07;6.67;;;1.33;;
17345;SDS011;8790;53.590;10.002;2023-12-20T03:14:38;7.10;;;1.53;;
17345;SDS011;8790;53.590;10.002;2023-12-20T03:17:10;9.43;;;1.40;;
17345;SDS011;8790;53.590;10.002;2023-12-20T03:19:41;9.47;;;1.77;;
17345;SDS011;8790;53.590;10.002;2023-12-20T03:22:14;6.53;;;1.50;;
17345;SDS011;8790;53.590;10.002;2023-12-20T03:24:45;5.50;;;1.63;;
17345;SDS011;8790;53.590;10.002;2023-12-20T03:27:17;7.67;;;1.40;;
17345;SDS011;8790;53.590;10.002;2023-12-20T03:29:48;4.87;;;1.37;;
17345;SDS011;8790;53.590;10.002;2023-12-20T03:32:20;8.03;;;1.93;;
17345;SDS011;8790;53.590;10.002;2023-12-20T03:34:51;10.67;;;1.80;;
17345;SDS011;8790;53.590;10.002;2023-12-20T03:37:24;6.50;;;1.50;;
17345;SDS011;8790;53.590;10.002;2023-12-20T03:39:55;8.40;;;1.40;;
17345;SDS011;8790;53.590;10.002;2023-12-20T03:42:27;3.67;;;1.23;;
17345;SDS011;8790;53.590;10.002;2023-12-20T03:44:58;7.27;;;1.30;;
17345;SDS011;8790;53.590;10.002;2023-12-20T03:47:30;6.47;;;1.90;;
17345;SDS011;8790;53.590;10.002;2023-12-20T03:50:01;7.60;;;1.73;;
17345;SDS011;8790;53.590;10.002;2023-12-20T03:52:34;5.27;;;1.33;;
17345;SDS011;8790;53.590;10.002;2023-12-20T03:55:06;9.07;;;1.57;;
17345;SDS011;8790;53.590;10.002;2023-12-20T03:57:37;6.17;;;1.40;;
17345;SDS011;8790;53.590;10.002;2023-12-20T04:00:09;4.70;;;1.40;;
17345;SDS011;8790;53.590;10.002;2023-12-20T04:02:44;5.10;;;1.30;;
17345;SDS011;8790;53.590;10.002;2023-12-20T04:05:15;6.47;;;1.63;;
17345;SDS011;8790;53.590;10.002;2023-12-20T04:07:48;7.80;;;1.33;;
17345;SDS011;8790;53.590;10.002;2023-12-20T04:10:20;6.07;;;1.37;;
17345;SDS011;8790;53.590;10.002;2023-12-20T04:12:51;5.53;;;1.57;;
17345;SDS011;8790;53.590;10.002;2023-12-20T04:15:23;4.53;;;1.40;;
17345;SDS011;8790;53.590;10.002;2023-12-20T04:17:55;5.00;;;1.43;;
17345;SDS011;8790;53.590;10.002;2023-12-20T04:20:26;6.20;;;1.70;;
17345;SDS011;8790;53.590;10.002;2023-12-20T04:22:59;5.93;;;1.40;;
17345;SDS011;8790;53.590;10.002;2023-12-20T04:25:30;4.10;;;1.17;;
17345;SDS011;8790;53.590;10.002;2023-12-20T04:28:02;10.70;;;1.80;;
17345;SDS011;8790;53.590;10.002;2023-12-20T04:30:33;7.00;;;1.60;;
17345;SDS011;8790;53.590;10.002;2023-12-20T04:33:05;4.67;;;1.30;;
17345;SDS011;8790;53.590;10.002;2023-12-20T04:35:36;6.10;;;1.30;;
17345;SDS011;8790;53.590;10.002;2023-12-20T04:38:09;8.20;;;1.40;;
17345;SDS011;8790;53.590;10.002;2023-12-20T04:40:40;7.00;;;1.53;;
17345;SDS011;8790;53.590;10.002;2023-12-20T04:43:12;7.40;;;1.60;;
17345;SDS011;8790;53.590;10.002;2023-12-20T04:45:43;8.30;;;1.50;;
17345;SDS011;8790;53.590;10.002;2023-12-20T04:48:14;7.03;;;1.63;;
17345;SDS011;8790;53.590;10.002;2023-12-20T04:50:46;6.73;;;1.30;;
17345;SDS011;8790;53.590;10.002;2023-12-20T04:53:19;6.63;;;1.53;;
17345;SDS011;8790;53.590;10.002;2023-12-20T04:55:50;4.53;;;1.40;;
17345;SDS011;8790;53.590;10.002;2023-12-20T04:58:21;9.43;;;1.40;;
17345;SDS011;8790;53.590;10.002;2023-12-20T05:00:53;4.80;;;1.40;;
17345;SDS011;8790;53.590;10.002;2023-12-20T05:03:24;5.67;;;1.43;;
17345;SDS011;8790;53.590;10.002;2023-12-20T05:05:55;7.47;;;1.53;;
17345;SDS011;8790;53.590;10.002;2023-12-20T05:08:28;5.07;;;1.30;;
17345;SDS011;8790;53.590;10.002;2023-12-20T05:11:00;8.40;;;1.53;;
17345;SDS011;8790;53.590;10.002;2023-12-20T05:13:31;6.10;;;1.30;;
17345;SDS011;8790;53.590;10.002;2023-12-20T05:16:02;7.33;;;1.70;;
17345;SDS011;8790;53.590;10.002;2023-12-20T05:18:34;5.80;;;1.47;;
17345;SDS011;8790;53.590;10.002;2023-12-20T05:21:06;8.13;;;2.00;;
17345;SDS011;8790;53.590;10.002;2023-12-20T05:23:39;13.67;;;1.77;;
17345;SDS011;8790;53.590;10.002;2023-12-20T05:26:10;5.53;;;1.80;;
17345;SDS011;8790;53.590;10.002;2023-12-20T05:28:41;7.60;;;1.60;;
17345;SDS011;8790;53.590;10.002;2023-12-20T05:31:13;5.27;;;1.57;;
17345;SDS011;8790;53.590;10.002;2023-12-20T05:33:44;8.33;;;1.80;;
17345;SDS011;8790;53.590;10.002;2023-12-20T05:36:16;10.73;;;2.03;;
17345;SDS011;8790;53.590;10.002;2023-12-20T05:38:48;8.00;;;1.70;;
17345;SDS011;8790;53.590;10.002;2023-12-20T05:41:20;8.17;;;2.00;;
17345;SDS011;8790;53.590;10.002;2023-12-20T05:43:53;8.17;;;1.63;;
17345;SDS011;8790;53.590;10.002;2023-12-20T05:46:24;8.40;;;2.00;;
17345;SDS011;8790;53.590;10.002;2023-12-20T05:48:56;7.43;;;1.80;;
17345;SDS011;8790;53.590;10.002;2023-12-20T05:51:28;8.40;;;1.80;;
17345;SDS011;8790;53.590;10.002;2023-12-20T05:54:00;8.10;;;1.87;;
17345;SDS011;8790;53.590;10.002;2023-12-20T05:56:32;11.17;;;2.30;;
17345;SDS011;8790;53.590;10.002;2023-12-20T05:59:03;11.00;;;2.00;;
17345;SDS011;8790;53.590;10.002;2023-12-20T06:01:35;6.30;;;1.83;;
17345;SDS011;8790;53.590;10.002;2023-12-20T06:04:06;6.33;;;1.80;;
17345;SDS011;8790;53.590;10.002;2023-12-20T06:06:40;10.23;;;1.77;;
17345;SDS011;8790;53.590;10.002;2023-12-20T06:09:13;8.67;;;2.10;;
17345;SDS011;8790;53.590;10.002;2023-12-20T06:11:45;6.17;;;1.80;;
17345;SDS011;8790;53.590;10.002;2023-12-20T06:14:17;10.77;;;2.10;;
17345;SDS011;8790;53.590;10.002;2023-12-20T06:16:48;10.83;;;2.00;;
17345;SDS011;8790;53.590;10.002;2023-12-20T06:19:20;7.23;;;1.97;;
17345;SDS011;8790;53.590;10.002;2023-12-20T06:21:51;9.33;;;2.03;;
17345;SDS011;8790;53.590;10.002;2023-12-20T06:24:24;7.50;;;1.97;;
17345;SDS011;8790;53.590;10.002;2023-12-20T06:26:58;8.70;;;1.60;;
17345;SDS011;8790;53.590;10.002;2023-12-20T06:29:29;10.00;;;1.90;;
17345;SDS011;8790;53.590;10.002;2023-12-20T06:32:01;8.83;;;1.80;;
17345;SDS011;8790;53.590;10.002;2023-12-20T06:34:32;10.87;;;2.20;;
17345;SDS011;8790;53.590;10.002;2023-12-20T06:37:04;8.33;;;1.70;;
17345;SDS011;8790;53.590;10.002;2023-12-20T06:39:37;10.73;;;2.00;;
17345;SDS011;8790;53.590;10.002;2023-12-20T06:42:08;7.40;;;1.97;;
17345;SDS011;8790;53.590;10.002;2023-12-20T06:44:40;10.97;;;2.20;;
17345;SDS011;8790;53.590;10.002;2023-12-20T06:47:11;9.40;;;1.50;;
17345;SDS011;8790;53.590;10.002;2023-12-20T06:49:44;8.03;;;1.47;;
17345;SDS011;8790;53.590;10.002;2023-12-20T06:52:15;10.10;;;1.93;;
17345;SDS011;8790;53.590;10.002;2023-12-20T06:54:48;6.30;;;2.97;;
17345;SDS011;8790;53.590;10.002;2023-12-20T06:57:19;8.47;;;1.80;;
17345;SDS011;8790;53.590;10.002;2023-12-20T06:59:51;6.67;;;1.73;;
17345;SDS011;8790;53.590;10.002;2023-12-20T07:02:22;5.87;;;1.70;;
17345;SDS011;8790;53.590;10.002;2023-12-20T07:04:54;7.73;;;2.30;;
17345;SDS011;8790;53.590;10.002;2023-12-20T07:07:25;8.10;;;2.13;;
17345;SDS011;8790;53.590;10.002;2023-12-20T07:09:58;9.27;;;1.90;;
17345;SDS011;8790;53.590;10.002;2023-12-20T07:12:29;11.80;;;2.00;;
17345;SDS011;8790;53.590;10.002;2023-12-20T07:15:01;8.23;;;1.80;;
17345;SDS011;8790;53.590;10.002;2023-12-20T07:17:32;7.87;;;1.90;;
17345;SDS011;8790;53.590;10.002;2023-12-20T07:20:04;7.73;;;1.73;;
17345;SDS011;8790;53.590;10.002;2023-12-20T07:22:39;7.93;;;2.47;;
17345;SDS011;8790;53.590;10.002;2023-12-20T07:25:12;6.93;;;1.80;;
17345;SDS011;8790;53.590;10.002;2023-12-20T07:27:44;5.53;;;1.90;;
17345;SDS011;8790;53.590;10.002;2023-12-20T07:30:15;7.40;;;1.83;;
17345;SDS011;8790;53.590;10.002;2023-12-20T07:32:47;12.40;;;2.27;;
17345;SDS011;8790;53.590;10.002;2023-12-20T07:35:19;8.03;;;2.40;;
17345;SDS011;8790;53.590;10.002;2023-12-20T07:37:50;9.23;;;1.83;;
17345;SDS011;8790;53.590;10.002;2023-12-20T07:40:23;9.23;;;2.20;;
17345;SDS011;8790;53.590;10.002;2023-12-20T07:42:54;7.37;;;1.97;;
17345;SDS011;8790;53.590;10.002;2023-12-20T07:45:26;11.90;;;2.10;;
17345;SDS011;8790;53.590;10.002;2023-12-20T07:47:57;13.17;;;2.47;;
17345;SDS011;8790;53.590;10.002;2023-12-20T07:50:29;15.50;;;2.33;;
17345;SDS011;8790;53.590;10.002;2023-12-20T07:53:00;11.07;;;2.27;;
17345;SDS011;8790;53.590;10.002;2023-12-20T07:55:33;12.30;;;2.20;;
17345;SDS011;8790;53.590;10.002;2023-12-20T07:58:04;9.13;;;2.30;;
17345;SDS011;8790;53.590;10.002;2023-12-20T08:00:36;7.87;;;2.27;;
17345;SDS011;8790;53.590;10.002;2023-12-20T08:03:08;7.63;;;1.90;;
17345;SDS011;8790;53.590;10.002;2023-12-20T08:05:39;11.00;;;2.17;;
17345;SDS011;8790;53.590;10.002;2023-12-20T08:08:11;7.97;;;2.03;;
17345;SDS011;8790;53.590;10.002;2023-12-20T08:10:45;7.57;;;2.10;;
17345;SDS011;8790;53.590;10.002;2023-12-20T08:13:16;10.10;;;2.23;;
17345;SDS011;8790;53.590;10.002;2023-12-20T08:15:47;8.63;;;2.50;;
17345;SDS011;8790;53.590;10.002;2023-12-20T08:18:18;11.17;;;2.57;;
17345;SDS011;8790;53.590;10.002;2023-12-20T08:20:49;7.47;;;1.80;;
17345;SDS011;8790;53.590;10.002;2023-12-20T08:23:22;12.17;;;2.53;;
17345;SDS011;8790;53.590;10.002;2023-12-20T08:25:56;9.80;;;2.47;;
17345;SDS011;8790;53.590;10.002;2023-12-20T08:28:27;7.10;;;2.13;;
17345;SDS011;8790;53.590;10.002;2023-12-20T08:30:58;10.90;;;1.97;;
17345;SDS011;8790;53.590;10.002;2023-12-20T08:33:30;8.90;;;2.27;;
17345;SDS011;8790;53.590;10.002;2023-12-20T08:36:01;13.77;;;2.27;;
17345;SDS011;8790;53.590;10.002;2023-12-20T08:38:35;8.10;;;1.87;;
17345;SDS011;8790;53.590;10.002;2023-12-20T08:41:08;12.57;;;2.20;;
17345;SDS011;8790;53.590;10.002;2023-12-20T08:43:39;11.90;;;2.27;;
17345;SDS011;8790;53.590;10.002;2023-12-20T08:46:11;8.90;;;2.57;;
17345;SDS011;8790;53.590;10.002;2023-12-20T08:48:42;10.47;;;2.37;;
17345;SDS011;8790;53.590;10.002;2023-12-20T08:51:13;9.80;;;2.47;;
17345;SDS011;8790;53.590;10.002;2023-12-20T08:53:45;8.97;;;2.57;;
17345;SDS011;8790;53.590;10.002;2023-12-20T08:56:19;7.10;;;2.00;;
17345;SDS011;8790;53.590;10.002;2023-12-20T08:58:50;10.57;;;1.73;;
17345;SDS011;8790;53.590;10.002;2023-12-20T09:01:22;11.23;;;2.13;;
17345;SDS011;8790;53.590;10.002;2023-12-20T09:03:53;10.57;;;2.20;;
17345;SDS011;8790;53.590;10.002;2023-12-20T09:06:25;7.77;;;1.90;;
17345;SDS011;8790;53.590;10.002;2023-12-20T09:08:56;8.73;;;2.10;;
17345;SDS011;8790;53.590;10.002;2023-12-20T09:11:29;8.37;;;1.93;;
17345;SDS011;8790;53.590;10.002;2023-12-20T09:14:00;8.03;;;1.83;;
17345;SDS011;8790;53.590;10.002;2023-12-20T09:16:33;6.40;;;1.63;;
17345;SDS011;8790;53.590;10.002;2023-12-20T09:19:05;9.80;;;2.17;;
17345;SDS011;8790;53.590;10.002;2023-12-20T09:21:36;6.90;;;1.57;;
17345;SDS011;8790;53.590;10.002;2023-12-20T09:24:08;3.63;;;1.50;;
17345;SDS011;8790;53.590;10.002;2023-12-20T09:26:41;6.27;;;1.47;;
17345;SDS011;8790;53.590;10.002;2023-12-20T09:29:14;8.60;;;1.30;;
17345;SDS011;8790;53.590;10.002;2023-12-20T09:31:46;5.77;;;1.37;;
17345;SDS011;8790;53.590;10.002;2023-12-20T09:34:17;2.00;;;0.73;;
17345;SDS011;8790;53.590;10.002;2023-12-20T09:36:49;3.40;;;1.30;;
17345;SDS011;8790;53.590;10.002;2023-12-20T09:39:20;3.23;;;0.80;;
17345;SDS011;8790;53.590;10.002;2023-12-20T09:41:57;1.50;;;0.50;;
17345;SDS011;8790;53.590;10.002;2023-12-20T09:44:32;3.70;;;0.90;;
17345;SDS011;8790;53.590;10.002;2023-12-20T09:47:05;1.80;;;0.50;;
17345;SDS011;8790;53.590;10.002;2023-12-20T09:49:36;1.67;;;0.50;;
17345;SDS011;8790;53.590;10.002;2023-12-20T09:52:08;2.60;;;0.70;;
17345;SDS011;8790;53.590;10.002;2023-12-20T09:54:41;2.57;;;0.40;;
17345;SDS011;8790;53.590;10.002;2023-12-20T09:57:15;1.47;;;0.60;;
17345;SDS011;8790;53.590;10.002;2023-12-20T09:59:46;1.30;;;0.50;;
17345;SDS011;8790;53.590;10.002;2023-12-20T10:02:17;2.03;;;0.60;;
17345;SDS011;8790;53.590;10.002;2023-12-20T10:04:54;0.47;;;0.40;;
17345;SDS011;8790;53.590;10.002;2023-12-20T10:07:25;4.37;;;0.70;;
17345;SDS011;8790;53.590;10.002;2023-12-20T10:09:56;1.73;;;1.20;;
17345;SDS011;8790;53.590;10.002;2023-12-20T10:12:29;4.80;;;1.57;;
17345;SDS011;8790;53.590;10.002;2023-12-20T10:15:01;2.43;;;0.50;;
17345;SDS011;8790;53.590;10.002;2023-12-20T10:17:33;1.60;;;0.60;;
17345;SDS011;8790;53.590;10.002;2023-12-20T10:20:05;2.23;;;0.60;;
17345;SDS011;8790;53.590;10.002;2023-12-20T10:22:39;2.43;;;0.60;;
17345;SDS011;8790;53.590;10.002;2023-12-20T10:25:11;5.77;;;2.10;;
17345;SDS011;8790;53.590;10.002;2023-12-20T10:27:44;1.67;;;0.60;;
17345;SDS011;8790;53.590;10.002;2023-12-20T10:30:15;2.60;;;0.80;;
17345;SDS011;8790;53.590;10.002;2023-12-20T10:32:47;1.33;;;0.60;;
17345;SDS011;8790;53.590;10.002;2023-12-20T10:35:19;2.87;;;0.70;;
17345;SDS011;8790;53.590;10.002;2023-12-20T10:37:50;1.43;;;0.57;;
17345;SDS011;8790;53.590;10.002;2023-12-20T10:40:26;5.17;;;1.27;;
17345;SDS011;8790;53.590;10.002;2023-12-20T10:43:01;5.57;;;1.53;;
17345;SDS011;8790;53.590;10.002;2023-12-20T10:45:33;2.30;;;0.60;;
17345;SDS011;8790;53.590;10.002;2023-12-20T10:48:05;3.17;;;0.90;;
17345;SDS011;8790;53.590;10.002;2023-12-20T10:50:38;2.40;;;0.70;;
17345;SDS011;8790;53.590;10.002;2023-12-20T10:53:10;3.47;;;0.70;;
17345;SDS011;8790;53.590;10.002;2023-12-20T10:55:42;3.73;;;0.87;;
17345;SDS011;8790;53.590;10.002;2023-12-20T10:58:16;4.10;;;1.00;;
17345;SDS011;8790;53.590;10.002;2023-12-20T11:00:49;4.63;;;0.87;;
17345;SDS011;8790;53.590;10.002;2023-12-20T11:03:26;2.57;;;0.90;;
17345;SDS011;8790;53.590;10.002;2023-12-20T11:06:00;2.27;;;0.93;;
17345;SDS011;8790;53.590;10.002;2023-12-20T11:08:36;5.60;;;1.20;;
17345;SDS011;8790;53.590;10.002;2023-12-20T11:11:11;4.23;;;0.90;;
17345;SDS011;8790;53.590;10.002;2023-12-20T11:13:53;4.30;;;1.10;;
17345;SDS011;8790;53.590;10.002;2023-12-20T11:16:26;5.70;;;1.20;;
17345;SDS011;8790;53.590;10.002;2023-12-20T11:18:57;1.57;;;0.63;;
17345;SDS011;8790;53.590;10.002;2023-12-20T11:21:29;3.03;;;0.70;;
17345;SDS011;8790;53.590;10.002;2023-12-20T11:24:01;3.37;;;0.90;;
17345;SDS011;8790;53.590;10.002;2023-12-20T11:26:32;2.57;;;1.00;;
17345;SDS011;8790;53.590;10.002;2023-12-20T11:32:03;1.67;;;1.00;;
17345;SDS011;8790;53.590;10.002;2023-12-20T11:34:34;0.67;;;0.47;;
17345;SDS011;8790;53.590;10.002;2023-12-20T11:37:06;2.10;;;0.60;;
17345;SDS011;8790;53.590;10.002;2023-12-20T11:39:38;1.70;;;0.53;;
17345;SDS011;8790;53.590;10.002;2023-12-20T11:42:10;3.47;;;0.80;;
17345;SDS011;8790;53.590;10.002;2023-12-20T11:44:43;3.90;;;1.10;;
17345;SDS011;8790;53.590;10.002;2023-12-20T11:47:15;3.30;;;0.80;;
17345;SDS011;8790;53.590;10.002;2023-12-20T11:49:49;2.43;;;0.73;;
17345;SDS011;8790;53.590;10.002;2023-12-20T11:52:21;4.10;;;0.93;;
17345;SDS011;8790;53.590;10.002;2023-12-20T11:54:52;6.70;;;1.13;;
17345;SDS011;8790;53.590;10.002;2023-12-20T11:57:24;10.93;;;1.13;;
17345;SDS011;8790;53.590;10.002;2023-12-20T11:59:57;5.30;;;1.00;;
17345;SDS011;8790;53.590;10.002;2023-12-20T12:02:29;4.60;;;1.20;;
17345;SDS011;8790;53.590;10.002;2023-12-20T12:05:01;4.73;;;1.20;;
17345;SDS011;8790;53.590;10.002;2023-12-20T12:07:35;8.57;;;1.03;;
17345;SDS011;8790;53.590;10.002;2023-12-20T12:10:07;7.77;;;1.43;;
17345;SDS011;8790;53.590;10.002;2023-12-20T12:12:38;5.23;;;1.30;;
17345;SDS011;8790;53.590;10.002;2023-12-20T12:15:11;8.00;;;1.27;;
17345;SDS011;8790;53.590;10.002;2023-12-20T12:17:43;5.27;;;1.30;;
17345;SDS011;8790;53.590;10.002;2023-12-20T12:20:14;4.67;;;0.97;;
17345;SDS011;8790;53.590;10.002;2023-12-20T12:22:46;5.10;;;1.30;;
17345;SDS011;8790;53.590;10.002;2023-12-20T12:25:20;5.53;;;1.37;;
17345;SDS011;8790;53.590;10.002;2023-12-20T12:27:53;4.83;;;1.20;;
17345;SDS011;8790;53.590;10.002;2023-12-20T12:30:26;4.93;;;1.40;;
17345;SDS011;8790;53.590;10.002;2023-12-20T12:32:57;6.50;;;1.80;;
17345;SDS011;8790;53.590;10.002;2023-12-20T12:35:28;10.03;;;1.87;;
17345;SDS011;8790;53.590;10.002;2023-12-20T12:38:00;5.53;;;1.47;;
17345;SDS011;8790;53.590;10.002;2023-12-20T12:40:34;6.93;;;2.17;;
17345;SDS011;8790;53.590;10.002;2023-12-20T12:43:06;7.27;;;1.77;;
17345;SDS011;8790;53.590;10.002;2023-12-20T12:45:39;7.73;;;1.83;;
17345;SDS011;8790;53.590;10.002;2023-12-20T12:48:10;9.13;;;1.93;;
17345;SDS011;8790;53.590;10.002;2023-12-20T12:50:42;6.10;;;1.80;;
17345;SDS011;8790;53.590;10.002;2023-12-20T12:53:13;9.17;;;1.80;;
17345;SDS011;8790;53.590;10.002;2023-12-20T12:55:44;9.87;;;1.87;;
17345;SDS011;8790;53.590;10.002;2023-12-20T12:58:16;8.67;;;1.90;;
17345;SDS011;8790;53.590;10.002;2023-12-20T13:00:49;7.93;;;1.77;;
17345;SDS011;8790;53.590;10.002;2023-12-20T13:03:20;9.77;;;2.03;;
17345;SDS011;8790;53.590;10.002;2023-12-20T13:05:54;9.83;;;1.80;;
17345;SDS011;8790;53.590;10.002;2023-12-20T13:08:25;8.03;;;1.43;;
17345;SDS011;8790;53.590;10.002;2023-12-20T13:10:57;8.37;;;1.70;;
17345;SDS011;8790;53.590;10.002;2023-12-20T13:13:30;9.97;;;2.23;;
17345;SDS011;8790;53.590;10.002;2023-12-20T13:16:04;7.37;;;1.80;;
17345;SDS011;8790;53.590;10.002;2023-12-20T13:18:35;6.83;;;1.57;;
17345;SDS011;8790;53.590;10.002;2023-12-20T13:21:07;11.03;;;1.90;;
17345;SDS011;8790;53.590;10.002;2023-12-20T13:23:39;10.00;;;1.90;;
17345;SDS011;8790;53.590;10.002;2023-12-20T13:26:10;9.40;;;1.77;;
17345;SDS011;8790;53.590;10.002;2023-12-20T13:28:42;10.30;;;1.80;;
17345;SDS011;8790;53.590;10.002;2023-12-20T13:31:14;12.90;;;2.20;;
17345;SDS011;8790;53.590;10.002;2023-12-20T13:33:46;6.60;;;1.63;;
17345;SDS011;8790;53.590;10.002;2023-12-20T13:36:17;7.27;;;1.83;;
17345;SDS011;8790;53.590;10.002;2023-12-20T13:38:49;12.90;;;2.43;;
17345;SDS011;8790;53.590;10.002;2023-12-20T13:41:20;9.73;;;2.47;;
17345;SDS011;8790;53.590;10.002;2023-12-20T13:43:51;10.93;;;2.73;;
17345;SDS011;8790;53.590;10.002;2023-12-20T13:46:25;12.03;;;2.03;;
17345;SDS011;8790;53.590;10.002;2023-12-20T13:48:57;10.00;;;2.57;;
17345;SDS011;8790;53.590;10.002;2023-12-20T13:51:28;12.27;;;2.70;;
17345;SDS011;8790;53.590;10.002;2023-12-20T13:54:00;12.80;;;2.40;;
17345;SDS011;8790;53.590;10.002;2023-12-20T13:56:31;12.50;;;2.27;;
17345;SDS011;8790;53.590;10.002;2023-12-20T13:59:03;12.90;;;2.63;;
17345;SDS011;8790;53.590;10.002;2023-12-20T14:01:36;13.30;;;2.50;;
17345;SDS011;8790;53.590;10.002;2023-12-20T14:04:08;8.87;;;2.50;;
17345;SDS011;8790;53.590;10.002;2023-12-20T14:06:41;12.63;;;3.13;;
17345;SDS011;8790;53.590;10.002;2023-12-20T14:09:15;11.03;;;2.93;;
17345;SDS011;8790;53.590;10.002;2023-12-20T14:11:47;11.60;;;3.47;;
17345;SDS011;8790;53.590;10.002;2023-12-20T14:14:18;17.73;;;3.60;;
17345;SDS011;8790;53.590;10.002;2023-12-20T14:16:51;10.47;;;2.40;;
17345;SDS011;8790;53.590;10.002;2023-12-20T14:19:22;13.83;;;3.10;;
17345;SDS011;8790;53.590;10.002;2023-12-20T14:21:54;13.03;;;3.13;;
17345;SDS011;8790;53.590;10.002;2023-12-20T14:24:25;7.67;;;2.70;;
17345;SDS011;8790;53.590;10.002;2023-12-20T14:26:57;11.93;;;3.43;;
17345;SDS011;8790;53.590;10.002;2023-12-20T14:29:28;13.53;;;3.40;;
17345;SDS011;8790;53.590;10.002;2023-12-20T14:32:01;9.60;;;3.23;;
17345;SDS011;8790;53.590;10.002;2023-12-20T14:34:33;12.10;;;3.00;;
17345;SDS011;8790;53.590;10.002;2023-12-20T14:37:05;11.30;;;3.30;;
17345;SDS011;8790;53.590;10.002;2023-12-20T14:39:35;9.80;;;2.53;;
17345;SDS011;8790;53.590;10.002;2023-12-20T14:42:09;14.23;;;3.37;;
17345;SDS011;8790;53.590;10.002;2023-12-20T14:44:43;11.40;;;2.93;;
17345;SDS011;8790;53.590;10.002;2023-12-20T14:47:16;10.67;;;2.80;;
17345;SDS011;8790;53.590;10.002;2023-12-20T14:49:48;10.80;;;2.53;;
17345;SDS011;8790;53.590;10.002;2023-12-20T14:52:19;9.17;;;2.60;;
17345;SDS011;8790;53.590;10.002;2023-12-20T14:54:50;8.43;;;2.50;;
17345;SDS011;8790;53.590;10.002;2023-12-20T14:57:22;12.13;;;2.43;;
17345;SDS011;8790;53.590;10.002;2023-12-20T14:59:53;12.37;;;2.67;;
17345;SDS011;8790;53.590;10.002;2023-12-20T15:02:26;10.57;;;2.30;;
17345;SDS011;8790;53.590;10.002;2023-12-20T15:04:57;10.77;;;2.50;;
17345;SDS011;8790;53.590;10.002;2023-12-20T15:07:29;14.87;;;2.60;;
17345;SDS011;8790;53.590;10.002;2023-12-20T15:10:00;10.10;;;2.50;;
17345;SDS011;8790;53.590;10.002;2023-12-20T15:12:31;10.37;;;2.43;;
17345;SDS011;8790;53.590;10.002;2023-12-20T15:15:04;9.30;;;2.67;;
17345;SDS011;8790;53.590;10.002;2023-12-20T15:17:38;8.60;;;2.43;;